Time;durP1;ratioP1;P1;durP2;ratioP2;P2;SDS_P1;SDS_P2;PMS_P1;PMS_P2;Temp;Humidity;BMP_temperature;BMP_pressure;BME280_temperature;BME280_humidity;BME280_pressure;Samples;Min_cycle;Max_cycle;Signal;HPM_P1;HPM_P2
2022/01/23 00:02:02;;;;;;;11.80;5.68;;;;;;;4.44;100.00;102779.34;5021852;28;20057;-78
2022/01/23 00:04:28;;;;;;;15.70;6.50;;;;;;;4.47;100.00;102775.69;5026755;28;20030;-78
2022/01/23 00:06:53;;;;;;;10.63;4.97;;;;;;;4.43;100.00;102780.28;5007066;28;20025;-79
2022/01/23 00:09:19;;;;;;;12.53;5.33;;;;;;;4.42;100.00;102780.34;5024235;28;20948;-78
2022/01/23 00:11:51;;;;;;;15.60;5.67;;;;;;;4.36;100.00;102775.38;5004617;28;20099;-79
2022/01/23 00:17:20;;;;;;;10.18;4.68;;;;;;;4.40;100.00;102777.78;5020118;28;20034;-77
2022/01/23 00:19:47;;;;;;;12.80;5.75;;;;;;;4.40;100.00;102791.00;5003214;28;20475;-78
2022/01/23 00:22:13;;;;;;;10.18;5.35;;;;;;;4.40;100.00;102793.66;5013614;28;20524;-78
2022/01/23 00:30:24;;;;;;;10.00;5.38;;;;;;;4.42;100.00;102804.16;5007940;28;20062;-78
2022/01/23 00:32:51;;;;;;;10.48;4.63;;;;;;;4.46;100.00;102810.16;5021458;28;20037;-78
2022/01/23 00:35:17;;;;;;;18.17;6.80;;;;;;;4.46;100.00;102815.47;5011940;28;20042;-78
2022/01/23 00:37:43;;;;;;;13.18;5.50;;;;;;;4.43;100.00;102804.09;5007433;28;20037;-78
2022/01/23 00:40:10;;;;;;;17.52;5.05;;;;;;;4.42;100.00;102818.25;5003947;28;20036;-78
2022/01/23 00:42:37;;;;;;;13.20;5.03;;;;;;;4.46;100.00;102821.59;4995635;28;20108;-78
2022/01/23 00:45:26;;;;;;;13.07;5.10;;;;;;;4.49;100.00;102824.09;5012313;28;20013;-78
2022/01/23 00:47:54;;;;;;;12.70;6.18;;;;;;;4.47;100.00;102823.28;5004254;28;20096;-78
2022/01/23 00:50:20;;;;;;;9.98;4.88;;;;;;;4.42;100.00;102812.09;5004921;28;20038;-77
2022/01/23 00:52:45;;;;;;;10.63;5.60;;;;;;;4.47;100.00;102814.50;5012514;28;20034;-78
2022/01/23 00:55:11;;;;;;;13.33;5.47;;;;;;;4.52;100.00;102815.16;5012775;28;20042;-79
2022/01/23 00:57:36;;;;;;;17.60;5.68;;;;;;;4.49;100.00;102821.44;4997378;28;20038;-79
2022/01/23 01:00:07;;;;;;;11.87;5.90;;;;;;;4.50;100.00;102812.59;5005894;28;20479;-79
2022/01/23 01:02:32;;;;;;;13.88;5.80;;;;;;;4.42;100.00;102815.63;4988714;28;20056;-79
2022/01/23 01:04:58;;;;;;;12.35;5.07;;;;;;;4.42;100.00;102822.66;5011856;28;20466;-78
2022/01/23 01:07:23;;;;;;;25.00;6.03;;;;;;;4.44;100.00;102828.75;5006195;28;20049;-80
2022/01/23 01:09:51;;;;;;;8.73;4.70;;;;;;;4.41;100.00;102837.69;5037303;28;20426;-79
2022/01/23 01:12:25;;;;;;;10.30;5.45;;;;;;;4.52;100.00;102837.19;5013626;28;20037;-79
2022/01/23 01:17:25;;;;;;;10.70;5.63;;;;;;;4.49;100.00;102837.31;5003387;28;20476;-79
2022/01/23 01:30:17;;;;;;;15.63;6.35;;;;;;;4.53;100.00;102836.25;5008723;28;20379;-79
2022/01/23 01:31:04;;;;;;;17.07;6.30;;;;;;;4.55;100.00;102822.97;5013452;28;20030;-79
2022/01/23 01:36:03;;;;;;;11.35;5.72;;;;;;;4.56;100.00;102820.22;5008003;28;20053;-79
2022/01/23 01:38:28;;;;;;;13.40;6.07;;;;;;;4.52;100.00;102823.97;4993438;28;20555;-78
2022/01/23 01:40:54;;;;;;;13.43;4.73;;;;;;;4.51;100.00;102819.59;5020099;28;20137;-79
2022/01/23 01:43:21;;;;;;;14.82;6.35;;;;;;;4.49;100.00;102824.09;5004821;28;20276;-77
2022/01/23 01:45:46;;;;;;;10.33;4.97;;;;;;;4.52;100.00;102823.97;5011480;28;20036;-79
2022/01/23 01:48:23;;;;;;;13.68;5.03;;;;;;;4.54;100.00;102815.94;4992916;28;20080;-79
2022/01/23 01:50:55;;;;;;;10.20;5.28;;;;;;;4.54;100.00;102819.47;5011463;28;20388;-79
2022/01/23 01:53:22;;;;;;;12.98;5.18;;;;;;;4.55;100.00;102826.47;4995990;28;20029;-78
2022/01/23 01:55:52;;;;;;;9.27;5.10;;;;;;;4.49;100.00;102810.00;5001594;28;20038;-79
2022/01/23 02:09:41;;;;;;;16.42;5.95;;;;;;;4.57;100.00;102837.84;5013258;28;20100;-79
2022/01/23 02:23:01;;;;;;;11.43;5.68;;;;;;;4.67;100.00;102861.22;5004610;28;20041;-79
2022/01/23 02:50:46;;;;;;;9.35;4.93;;;;;;;4.65;100.00;102856.84;5033830;28;20087;-79
2022/01/23 02:55:59;;;;;;;9.95;4.70;;;;;;;4.67;100.00;102864.72;5014132;28;20511;-79
2022/01/23 02:58:32;;;;;;;12.50;5.20;;;;;;;4.62;100.00;102854.34;4991282;28;20018;-79
2022/01/23 03:01:11;;;;;;;13.05;5.28;;;;;;;4.67;100.00;102850.63;5013622;28;20144;-79
2022/01/23 03:03:57;;;;;;;13.85;5.72;;;;;;;4.70;100.00;102842.53;4991951;28;20033;-78
2022/01/23 03:09:55;;;;;;;12.45;4.78;;;;;;;4.77;100.00;102855.38;5009267;28;20471;-79
2022/01/23 03:15:03;;;;;;;8.85;4.45;;;;;;;4.70;100.00;102850.47;5011962;28;20065;-79
2022/01/23 03:33:29;;;;;;;12.65;6.45;;;;;;;4.71;100.00;102873.38;5013763;28;20036;-79
2022/01/23 03:35:54;;;;;;;12.75;5.10;;;;;;;4.76;100.00;102895.19;4997020;28;20124;-80
2022/01/23 03:38:20;;;;;;;12.35;5.38;;;;;;;4.74;100.00;102899.69;5013788;28;20508;-79
2022/01/23 03:40:45;;;;;;;11.23;5.60;;;;;;;4.81;100.00;102891.38;4997246;28;20465;-78
2022/01/23 03:43:14;;;;;;;13.75;5.55;;;;;;;4.72;100.00;102878.56;5016920;22;20033;-84
2022/01/23 03:50:36;;;;;;;11.90;5.55;;;;;;;4.81;100.00;102899.31;5045076;28;20033;-84
2022/01/23 03:53:02;;;;;;;14.97;5.60;;;;;;;4.76;100.00;102901.31;5035016;28;20103;-84
2022/01/23 03:55:27;;;;;;;12.87;5.97;;;;;;;4.81;100.00;102898.47;5044855;28;20467;-83
2022/01/23 03:57:53;;;;;;;14.15;6.57;;;;;;;4.79;100.00;102895.03;5061706;28;20032;-83
2022/01/23 04:00:18;;;;;;;13.73;5.03;;;;;;;4.81;100.00;102906.41;5039652;28;20041;-84
2022/01/23 04:02:44;;;;;;;12.80;6.10;;;;;;;4.83;100.00;102909.84;5048141;28;20026;-84
2022/01/23 04:05:19;;;;;;;12.85;4.75;;;;;;;4.83;100.00;102907.19;5030838;28;20030;-83
2022/01/23 04:07:45;;;;;;;17.10;6.00;;;;;;;4.82;100.00;102908.97;5064321;28;20529;-84
2022/01/23 04:10:13;;;;;;;;;;;;;;;4.84;100.00;102911.53;5049876;28;20504;-84
2022/01/23 04:12:51;;;;;;;11.35;5.15;;;;;;;4.79;100.00;102911.75;5049233;28;20336;-84
2022/01/23 04:32:10;;;;;;;16.02;5.95;;;;;;;4.84;100.00;102917.69;5033779;28;20030;-84
2022/01/23 04:45:36;;;;;;;13.20;5.40;;;;;;;4.90;100.00;102940.38;5047517;28;20025;-84
2022/01/23 05:02:26;;;;;;;8.95;3.75;;;;;;;4.87;100.00;102924.66;5047585;28;20029;-84
2022/01/23 05:05:11;;;;;;;7.78;3.50;;;;;;;4.86;100.00;102933.50;5003225;28;20207;-84
2022/01/23 05:07:57;;;;;;;5.72;3.53;;;;;;;4.83;100.00;102931.88;5054035;28;20056;-84
2022/01/23 05:10:39;;;;;;;8.02;3.05;;;;;;;4.70;100.00;102924.56;5040654;28;20037;-84
2022/01/23 05:13:24;;;;;;;7.25;3.20;;;;;;;4.87;100.00;102959.06;5038744;28;20103;-84
2022/01/23 05:15:49;;;;;;;10.82;3.70;;;;;;;4.81;100.00;102960.19;5037685;28;20136;-83
2022/01/23 05:18:15;;;;;;;7.27;2.83;;;;;;;4.85;100.00;102975.00;5045615;28;20326;-83
2022/01/23 05:20:41;;;;;;;9.27;3.67;;;;;;;4.87;100.00;102969.66;5053812;28;20548;-83
2022/01/23 05:23:08;;;;;;;7.32;3.15;;;;;;;4.81;100.00;102957.53;5029857;28;20021;-84
2022/01/23 05:25:38;;;;;;;10.13;3.95;;;;;;;4.64;100.00;102939.78;5029495;28;20039;-84
2022/01/23 05:28:03;;;;;;;9.27;3.60;;;;;;;4.85;100.00;102968.84;5024600;28;20029;-84
2022/01/23 05:30:29;;;;;;;8.85;3.45;;;;;;;4.87;100.00;102969.66;5040966;28;20017;-84
2022/01/23 05:32:57;;;;;;;10.73;3.72;;;;;;;4.88;100.00;102970.50;5029252;28;20047;-83
2022/01/23 05:35:24;;;;;;;9.68;4.07;;;;;;;4.92;100.00;102974.72;5041038;28;20083;-83
2022/01/23 05:37:51;;;;;;;10.70;4.25;;;;;;;4.74;100.00;102955.25;5021565;28;20099;-83
2022/01/23 05:40:20;;;;;;;9.20;4.07;;;;;;;4.86;100.00;102973.22;5045781;28;20055;-83
2022/01/23 05:42:49;;;;;;;12.50;4.82;;;;;;;4.82;100.00;102976.91;5061037;28;20028;-83
2022/01/23 05:45:15;;;;;;;12.88;4.35;;;;;;;4.93;100.00;102995.81;5038910;28;20032;-83
2022/01/23 05:47:59;;;;;;;9.75;4.18;;;;;;;4.88;100.00;102992.53;5045555;28;20068;-84
2022/01/23 05:50:44;;;;;;;8.40;3.92;;;;;;;5.00;100.00;103007.84;5043612;28;20071;-83
2022/01/23 05:53:28;;;;;;;12.07;4.53;;;;;;;4.97;100.00;103005.34;5030836;28;20159;-83
2022/01/23 05:56:11;;;;;;;8.52;3.47;;;;;;;4.93;100.00;102995.81;5029119;28;20295;-83
2022/01/23 05:58:51;;;;;;;8.27;3.97;;;;;;;4.89;100.00;102994.22;5055362;28;20040;-83
2022/01/23 06:01:18;;;;;;;9.50;3.67;;;;;;;4.93;100.00;102995.81;5089144;22;20111;-79
2022/01/23 06:03:45;;;;;;;14.43;4.95;;;;;;;4.93;100.00;103001.13;5061625;28;20169;-79
2022/01/23 06:06:13;;;;;;;10.95;4.32;;;;;;;4.94;100.00;103004.59;5063138;28;20024;-79
2022/01/23 06:08:39;;;;;;;12.38;4.25;;;;;;;4.91;100.00;102997.66;5068261;28;20035;-78
2022/01/23 06:11:05;;;;;;;11.25;5.22;;;;;;;4.93;100.00;103006.41;5068649;28;20032;-79
2022/01/23 06:13:39;;;;;;;9.13;4.60;;;;;;;4.99;100.00;103019.38;5071326;28;20020;-78
2022/01/23 06:16:06;;;;;;;12.88;3.97;;;;;;;5.13;100.00;103028.44;5067843;28;20031;-79
2022/01/23 06:18:35;;;;;;;9.70;4.85;;;;;;;5.02;100.00;103005.97;5071491;28;20479;-81
2022/01/23 06:21:21;;;;;;;9.63;4.40;;;;;;;5.08;100.00;103011.00;5081046;28;20062;-78
2022/01/23 06:24:23;;;;;;;17.80;4.85;;;;;;;5.06;100.00;103004.91;5053188;28;20461;-78
2022/01/23 06:27:02;;;;;;;10.32;4.80;;;;;;;5.08;100.00;102999.56;5073447;28;20041;-77
2022/01/23 06:29:30;;;;;;;13.05;5.10;;;;;;;5.04;100.00;102995.34;5072558;28;20036;-78
2022/01/23 06:31:58;;;;;;;11.98;5.97;;;;;;;5.09;100.00;102988.03;5063476;28;20032;-77
2022/01/23 06:34:26;;;;;;;13.20;4.35;;;;;;;5.07;100.00;102981.94;5072309;28;20089;-77
2022/01/23 06:36:52;;;;;;;;;;;;;;;5.01;100.00;102977.81;5064581;28;20024;-78
2022/01/23 06:39:19;;;;;;;13.52;5.70;;;;;;;5.07;100.00;102982.78;5071724;28;19915;-78
2022/01/23 06:41:44;;;;;;;13.55;6.15;;;;;;;5.02;100.00;102979.50;5063491;28;20590;-77
2022/01/23 06:44:28;;;;;;;14.52;6.28;;;;;;;5.02;100.00;102987.44;5067843;28;20102;-78
2022/01/23 06:46:56;;;;;;;14.75;5.82;;;;;;;4.97;100.00;102981.50;5063455;28;20040;-78
2022/01/23 06:49:22;;;;;;;14.35;6.55;;;;;;;4.97;100.00;102993.91;5072923;28;20039;-78
2022/01/23 06:51:49;;;;;;;18.52;6.40;;;;;;;5.08;100.00;103013.66;5083700;28;20485;-77
2022/01/23 06:54:15;;;;;;;17.98;7.63;;;;;;;5.05;100.00;103018.22;5058072;28;20028;-76
2022/01/23 06:56:41;;;;;;;18.83;6.75;;;;;;;5.05;100.00;103015.56;5057871;28;20040;-77
2022/01/23 06:59:06;;;;;;;15.20;5.95;;;;;;;5.05;100.00;103021.72;5072373;28;20469;-77
2022/01/23 07:01:33;;;;;;;17.90;6.72;;;;;;;5.05;100.00;103021.72;5080357;28;20039;-77
2022/01/23 07:04:18;;;;;;;15.30;7.00;;;;;;;5.06;100.00;103026.09;5064595;28;20028;-78
2022/01/23 07:07:07;;;;;;;17.55;7.10;;;;;;;5.04;100.00;103033.25;5064159;28;20050;-77
2022/01/23 07:09:52;;;;;;;19.00;6.88;;;;;;;5.06;100.00;103049.94;5079145;28;20169;-77
2022/01/23 07:12:32;;;;;;;14.75;6.15;;;;;;;5.07;100.00;103051.63;5088943;28;20058;-78
2022/01/23 07:15:15;;;;;;;15.45;7.70;;;;;;;5.07;100.00;103051.63;5083616;28;20035;-78
2022/01/23 07:17:52;;;;;;;16.40;6.78;;;;;;;5.06;100.00;103054.38;5088795;28;20387;-78
2022/01/23 07:20:23;;;;;;;15.55;7.03;;;;;;;5.07;100.00;103056.94;5059874;28;20028;-78
2022/01/23 07:22:51;;;;;;;13.48;6.18;;;;;;;5.38;100.00;103089.94;5059442;28;20124;-77
2022/01/23 07:25:16;;;;;;;17.00;7.53;;;;;;;5.29;100.00;103071.81;5057960;28;20104;-78
2022/01/23 07:27:49;;;;;;;15.02;6.13;;;;;;;5.23;100.00;103072.13;5054159;28;20041;-77
2022/01/23 07:32:58;;;;;;;15.55;6.72;;;;;;;5.19;100.00;103073.19;5061961;28;20058;-77
2022/01/23 07:35:24;;;;;;;16.42;6.60;;;;;;;5.21;100.00;103082.78;5061427;28;20965;-77
2022/01/23 07:37:49;;;;;;;16.23;7.00;;;;;;;5.13;100.00;103076.09;5087049;28;20417;-76
2022/01/23 07:40:33;;;;;;;18.08;7.13;;;;;;;5.11;100.00;103078.00;5084010;28;20439;-78
2022/01/23 07:42:58;;;;;;;20.42;8.52;;;;;;;5.20;100.00;103088.16;5064606;28;20032;-79
2022/01/23 07:45:43;;;;;;;12.07;6.07;;;;;;;5.23;100.00;103094.16;5080784;28;20397;-78
2022/01/23 07:48:40;;;;;;;10.68;4.43;;;;;;;5.19;100.00;103087.28;5059668;28;20064;-78
2022/01/23 07:51:20;;;;;;;16.27;5.68;;;;;;;5.18;100.00;103105.91;5057277;28;20035;-78
2022/01/23 07:54:12;;;;;;;18.83;6.10;;;;;;;5.33;100.00;103110.50;5074098;28;20047;-77
2022/01/23 07:57:00;;;;;;;11.60;4.70;;;;;;;5.48;100.00;103120.41;5089695;28;20100;-78
2022/01/23 07:59:47;;;;;;;10.82;4.60;;;;;;;5.30;100.00;103100.06;5062943;28;20033;-78
2022/01/23 08:02:39;;;;;;;16.08;5.70;;;;;;;5.28;100.00;103105.41;5060634;28;20129;-77
2022/01/23 08:05:31;;;;;;;14.63;5.88;;;;;;;5.29;100.00;103107.16;5039597;28;20067;-78
2022/01/23 08:08:25;;;;;;;12.48;5.18;;;;;;;5.21;100.00;103103.97;5046171;28;20051;-77
2022/01/23 08:11:06;;;;;;;13.88;5.70;;;;;;;5.22;100.00;103105.72;5071248;28;20907;-77
2022/01/23 08:13:31;;;;;;;15.70;5.88;;;;;;;5.28;100.00;103105.41;5043652;28;20051;-78
2022/01/23 08:15:56;;;;;;;16.07;5.23;;;;;;;5.26;100.00;103109.06;5069592;28;20020;-78
2022/01/23 08:18:22;;;;;;;9.57;4.43;;;;;;;5.34;100.00;103116.66;5066537;28;20040;-78
2022/01/23 08:20:47;;;;;;;11.43;5.53;;;;;;;5.28;100.00;103112.50;5055618;28;20044;-78
2022/01/23 08:23:13;;;;;;;12.10;5.30;;;;;;;5.36;100.00;103120.09;5064963;28;20020;-79
2022/01/23 08:25:39;;;;;;;18.00;5.30;;;;;;;5.34;100.00;103117.53;5063995;28;20059;-78
2022/01/23 08:28:04;;;;;;;17.70;5.05;;;;;;;5.35;100.00;103132.47;5056183;28;20096;-77
2022/01/23 08:30:30;;;;;;;12.10;4.93;;;;;;;5.34;100.00;103119.28;5051264;28;20025;-77
2022/01/23 08:32:55;;;;;;;10.07;4.75;;;;;;;5.38;100.00;103134.13;5069186;28;20067;-79
2022/01/23 08:35:21;;;;;;;15.13;4.97;;;;;;;5.42;100.00;103135.72;5057310;28;20102;-79
2022/01/23 08:37:47;;;;;;;15.65;4.80;;;;;;;5.42;100.00;103136.56;5062279;28;20120;-77
2022/01/23 08:40:23;;;;;;;11.52;4.72;;;;;;;5.44;100.00;103133.84;5049632;28;20433;-79
2022/01/23 08:42:52;;;;;;;12.43;5.25;;;;;;;5.61;100.00;103148.97;5058224;28;20047;-78
2022/01/23 08:45:17;;;;;;;13.05;5.50;;;;;;;5.57;100.00;103145.63;5066247;28;20066;-79
2022/01/23 08:47:43;;;;;;;13.00;5.22;;;;;;;5.59;100.00;103141.06;5091645;28;20052;-79
2022/01/23 08:50:08;;;;;;;20.27;6.03;;;;;;;5.50;100.00;103131.78;5071284;28;20117;-79
2022/01/23 08:52:34;;;;;;;9.95;5.07;;;;;;;5.53;100.00;103144.03;5066901;28;20032;-78
2022/01/23 08:54:59;;;;;;;17.97;5.63;;;;;;;5.53;100.00;103129.94;5068239;28;20608;-76
2022/01/23 08:57:25;;;;;;;13.77;5.47;;;;;;;5.59;100.00;103140.22;5078325;28;20048;-77
2022/01/23 08:59:51;;;;;;;12.38;5.00;;;;;;;5.60;100.00;103132.22;5085832;28;20115;-77
2022/01/23 09:02:18;;;;;;;20.30;6.40;;;;;;;5.57;100.00;103136.78;5072942;28;20094;-78
2022/01/23 09:04:45;;;;;;;22.88;6.00;;;;;;;5.64;100.00;103152.34;5053892;28;20092;-77
2022/01/23 09:07:11;;;;;;;12.30;5.25;;;;;;;5.60;100.00;103145.47;5049534;28;20492;-78
2022/01/23 09:09:39;;;;;;;12.73;5.32;;;;;;;5.54;100.00;103134.28;5074075;28;20089;-78
2022/01/23 09:12:10;;;;;;;11.57;5.60;;;;;;;5.58;100.00;103135.88;5076881;28;20040;-77
2022/01/23 09:14:36;;;;;;;12.77;5.93;;;;;;;5.60;100.00;103141.97;5074936;28;20393;-79
2022/01/23 09:17:03;;;;;;;;;;;;;;;5.66;100.00;103149.59;5049882;28;20039;-79
2022/01/23 09:19:29;;;;;;;14.77;5.45;;;;;;;5.62;100.00;103148.91;5062003;28;19916;-79
2022/01/23 09:21:56;;;;;;;11.10;5.40;;;;;;;5.66;100.00;103144.31;5056428;28;20063;-76
2022/01/23 09:24:23;;;;;;;13.55;6.38;;;;;;;5.65;100.00;103140.81;5085465;28;20038;-77
2022/01/23 09:26:54;;;;;;;13.60;5.90;;;;;;;5.68;100.00;103150.41;5072896;28;20047;-76
2022/01/23 09:29:31;;;;;;;19.65;5.93;;;;;;;5.67;100.00;103154.00;5054661;28;20044;-79
2022/01/23 09:31:58;;;;;;;17.80;7.05;;;;;;;5.74;100.00;103166.03;5074654;28;20051;-80
2022/01/23 09:34:31;;;;;;;14.43;6.95;;;;;;;5.80;100.00;103167.53;5075928;28;20549;-79
2022/01/23 09:36:57;;;;;;;17.48;5.85;;;;;;;5.83;100.00;103157.66;5075172;28;20036;-78
2022/01/23 09:39:24;;;;;;;12.07;5.63;;;;;;;5.87;100.00;103167.16;5075827;28;20231;-80
2022/01/23 09:41:51;;;;;;;;;;;;;;;5.85;100.00;103169.03;5074825;28;20070;-76
2022/01/23 09:44:18;;;;;;;15.88;6.13;;;;;;;5.78;100.00;103150.81;5072713;22;19925;-85
2022/01/23 09:46:45;;;;;;;12.25;5.55;;;;;;;5.80;100.00;103157.75;5047153;28;20613;-85
2022/01/23 09:49:16;;;;;;;12.98;5.38;;;;;;;5.84;100.00;103169.94;5044110;28;20497;-86
2022/01/23 09:51:43;;;;;;;12.10;5.35;;;;;;;5.84;100.00;103164.66;5060994;28;20099;-84
2022/01/23 09:54:15;;;;;;;9.07;4.38;;;;;;;5.84;100.00;103151.41;5044564;28;20027;-86
2022/01/23 09:56:42;;;;;;;10.07;3.83;;;;;;;5.90;100.00;103167.03;5045309;28;20049;-86
2022/01/23 09:59:14;;;;;;;10.57;4.65;;;;;;;5.91;100.00;103163.44;5033513;28;20510;-86
2022/01/23 10:01:41;;;;;;;12.48;4.90;;;;;;;5.99;100.00;103164.88;5059421;28;20036;-86
2022/01/23 10:04:07;;;;;;;15.10;5.25;;;;;;;5.99;100.00;103156.94;5070257;28;20020;-86
2022/01/23 10:06:33;;;;;;;13.38;5.03;;;;;;;6.04;100.00;103162.88;5071662;28;20039;-86
2022/01/23 10:08:59;;;;;;;8.43;4.00;;;;;;;6.00;100.00;103140.09;5056915;28;20022;-86
2022/01/23 10:11:29;;;;;;;10.27;4.03;;;;;;;6.12;100.00;103160.72;5033297;28;20030;-86
2022/01/23 10:13:54;;;;;;;12.00;4.50;;;;;;;6.17;100.00;103153.38;5031625;28;20028;-86
2022/01/23 10:16:21;;;;;;;8.10;3.45;;;;;;;6.24;100.00;103152.16;5026704;28;20557;-86
2022/01/23 10:18:48;;;;;;;42.20;4.65;;;;;;;6.30;100.00;103145.69;5042142;28;20482;-86
2022/01/23 10:21:13;;;;;;;6.13;3.63;;;;;;;6.40;100.00;103135.47;5045141;28;20120;-86
2022/01/23 10:23:40;;;;;;;7.47;3.65;;;;;;;6.19;100.00;103101.13;5032258;28;20125;-87
2022/01/23 10:26:06;;;;;;;5.72;3.47;;;;;;;6.30;100.00;103104.09;5025340;28;20044;-86
2022/01/23 10:28:34;;;;;;;6.57;3.00;;;;;;;6.35;100.00;103087.94;5025111;28;20033;-85
2022/01/23 10:31:04;;;;;;;7.35;3.55;;;;;;;6.42;100.00;103080.53;5031811;28;20053;-85
2022/01/23 10:33:35;;;;;;;8.77;3.38;;;;;;;6.51;100.00;103069.47;5025322;28;20078;-87
2022/01/23 10:36:05;;;;;;;10.68;4.03;;;;;;;6.49;100.00;103068.69;5045531;28;20156;-86
2022/01/23 10:38:33;;;;;;;6.35;3.55;;;;;;;6.57;100.00;103061.16;5020017;28;20064;-86
2022/01/23 10:46:40;;;;;;;9.75;4.15;;;;;;;6.38;100.00;103013.50;5043656;28;20041;-86
2022/01/23 10:49:06;;;;;;;9.13;3.90;;;;;;;6.51;100.00;103027.00;5041066;28;20123;-86
2022/01/23 10:51:36;;;;;;;6.38;3.58;;;;;;;6.50;100.00;103022.63;5050154;28;20071;-86
2022/01/23 10:54:14;;;;;;;7.57;4.40;;;;;;;6.56;100.00;103024.94;5042139;28;20045;-85
2022/01/23 10:56:49;;;;;;;17.45;4.70;;;;;;;6.86;100.00;103034.88;5057826;28;20568;-87
2022/01/23 10:59:15;;;;;;;7.93;3.55;;;;;;;7.28;100.00;103049.41;5058352;28;20477;-86
2022/01/23 11:02:02;;;;;;;11.10;3.55;;;;;;;7.32;100.00;103019.06;5062838;28;20352;-86
2022/01/23 11:04:28;;;;;;;9.63;3.65;;;;;;;7.83;100.00;103022.38;5052885;28;20513;-85
2022/01/23 11:07:00;;;;;;;5.65;2.95;;;;;;;8.50;100.00;102998.91;5026096;28;20029;-85
2022/01/23 11:09:37;;;;;;;8.18;3.15;;;;;;;8.94;100.00;102983.75;5026101;28;20125;-86
2022/01/23 11:12:13;;;;;;;;;;;;;;;9.11;100.00;102951.56;5043505;28;20478;-85
2022/01/23 11:17:24;;;;;;;7.95;2.67;;;;;;;9.12;100.00;102891.97;5049603;28;20040;-85
2022/01/23 11:19:56;;;;;;;6.85;2.47;;;;;;;9.57;100.00;102889.88;5049325;28;20033;-87
2022/01/23 11:22:26;;;;;;;15.00;3.10;;;;;;;8.98;100.00;102870.72;5030228;28;20041;-85
2022/01/23 11:24:55;;;;;;;8.68;3.05;;;;;;;8.58;100.00;102874.13;5034991;28;20383;-84
2022/01/23 11:27:22;;;;;;;12.65;2.65;;;;;;;8.99;100.00;102867.09;5045233;28;20101;-85
2022/01/23 11:29:52;;;;;;;10.27;3.75;;;;;;;9.88;100.00;102861.09;5042419;28;20024;-86
2022/01/23 11:32:20;;;;;;;6.28;3.20;;;;;;;10.25;100.00;102853.19;5037560;28;20033;-86
2022/01/23 11:34:47;;;;;;;5.25;2.50;;;;;;;10.36;100.00;102815.94;5025623;28;20024;-84
2022/01/23 11:37:15;;;;;;;12.43;4.05;;;;;;;10.61;98.45;102801.66;5027283;28;20128;-84
2022/01/23 11:39:47;;;;;;;5.88;2.25;;;;;;;10.27;96.40;102764.00;5047215;28;20048;-85
2022/01/23 11:56:24;;;;;;;17.65;3.83;;;;;;;9.53;92.79;102728.41;5046004;28;20506;-85
2022/01/23 11:59:17;;;;;;;19.80;3.40;;;;;;;9.13;93.70;102727.59;5038402;28;20038;-85
2022/01/23 12:01:45;;;;;;;13.00;2.75;;;;;;;9.27;94.32;102757.72;5074099;22;20041;-76
2022/01/23 12:04:22;;;;;;;10.77;2.95;;;;;;;9.61;94.14;102762.53;5025791;28;20043;-76
2022/01/23 12:07:15;;;;;;;16.50;3.80;;;;;;;10.61;92.58;102774.94;5022774;28;20696;-75
2022/01/23 12:09:43;;;;;;;12.20;3.03;;;;;;;11.09;90.11;102736.63;5030158;28;20037;-76
2022/01/23 12:12:46;;;;;;;8.88;3.05;;;;;;;10.18;88.04;102649.88;5040539;28;20040;-75
2022/01/23 12:18:21;;;;;;;10.05;2.88;;;;;;;9.36;89.55;102678.91;5045201;28;20481;-77
2022/01/23 12:20:48;;;;;;;13.88;3.30;;;;;;;8.69;90.94;102684.41;5032747;28;20120;-79
2022/01/23 12:23:15;;;;;;;10.52;3.03;;;;;;;8.47;92.73;102716.88;5036143;28;20116;-78
2022/01/23 12:25:49;;;;;;;12.82;2.75;;;;;;;8.49;93.60;102744.28;5019228;28;20018;-78
2022/01/23 12:28:31;;;;;;;8.35;2.17;;;;;;;8.41;94.47;102759.91;5027369;28;20044;-78
2022/01/23 12:31:19;;;;;;;12.55;2.45;;;;;;;8.32;95.64;102771.94;5041433;28;20072;-76
2022/01/23 12:33:48;;;;;;;11.27;2.72;;;;;;;8.30;96.18;102771.19;5029914;28;20516;-78
2022/01/23 12:36:13;;;;;;;9.98;2.45;;;;;;;8.61;96.56;102790.53;5041148;28;20032;-76
2022/01/23 12:38:45;;;;;;;10.10;2.23;;;;;;;8.88;95.98;102790.56;5024129;28;20037;-77
2022/01/23 12:41:16;;;;;;;10.10;2.50;;;;;;;9.46;95.11;102788.44;5037697;28;20033;-76
2022/01/23 12:43:42;;;;;;;12.55;2.75;;;;;;;9.76;93.00;102765.91;5038797;28;20037;-78
2022/01/23 12:46:08;;;;;;;7.38;1.70;;;;;;;9.63;91.64;102721.44;5033739;28;20024;-78
2022/01/23 12:48:33;;;;;;;7.55;1.98;;;;;;;9.21;90.65;102703.97;5034006;28;20737;-79
2022/01/23 12:51:08;;;;;;;10.17;2.27;;;;;;;8.68;91.34;102703.97;5022930;28;20099;-82
2022/01/23 12:53:45;;;;;;;8.93;2.05;;;;;;;8.60;92.48;102727.59;5023053;28;20028;-76
2022/01/23 12:56:23;;;;;;;14.07;2.60;;;;;;;8.38;93.82;102739.63;5028684;28;20060;-75
2022/01/23 12:58:59;;;;;;;17.48;2.78;;;;;;;8.38;94.51;102771.56;5044828;28;20064;-81
2022/01/23 13:01:26;;;;;;;5.10;1.60;;;;;;;8.39;95.07;102783.91;5051472;28;20051;-79
2022/01/23 13:03:58;;;;;;;5.53;1.63;;;;;;;8.44;94.83;102776.50;5046697;28;20033;-79
2022/01/23 13:06:36;;;;;;;6.30;1.80;;;;;;;8.14;95.04;102757.16;5038861;28;20029;-75
2022/01/23 13:12:26;;;;;;;8.00;1.85;;;;;;;8.43;94.83;102758.84;5040577;28;20078;-74
2022/01/23 13:17:55;;;;;;;6.13;1.73;;;;;;;8.25;95.27;102768.81;5044518;28;20052;-79
2022/01/23 13:31:38;;;;;;;4.43;1.13;;;;;;;8.11;96.25;102768.00;5040343;28;20035;-76
2022/01/23 13:34:19;;;;;;;7.40;2.53;;;;;;;8.35;96.32;102793.03;5020223;28;20033;-78
2022/01/23 13:36:54;;;;;;;5.78;1.38;;;;;;;8.36;95.23;102762.81;5040108;28;20041;-76
2022/01/23 13:39:43;;;;;;;11.80;1.73;;;;;;;8.11;95.21;102763.53;5040076;28;20040;-76
2022/01/23 13:59:31;;;;;;;4.38;1.33;;;;;;;7.90;97.03;102802.13;5037388;28;20037;-75
2022/01/23 14:04:27;;;;;;;7.93;1.90;;;;;;;7.73;97.78;102800.50;5035655;28;20044;-76
2022/01/23 14:06:52;;;;;;;3.90;1.63;;;;;;;7.86;97.92;102817.41;5023520;28;20018;-76
2022/01/23 14:09:20;;;;;;;4.70;2.92;;;;;;;7.86;97.60;102812.06;5038806;28;20105;-75
2022/01/23 14:11:46;;;;;;;5.18;1.60;;;;;;;7.94;97.67;102806.31;5030518;28;20048;-76
2022/01/23 14:14:17;;;;;;;7.95;2.05;;;;;;;8.03;97.58;102814.56;5027033;28;20048;-75
2022/01/23 14:16:44;;;;;;;6.47;2.08;;;;;;;8.14;97.29;102818.34;5061825;28;20124;-75
2022/01/23 14:19:24;;;;;;;4.95;1.70;;;;;;;8.49;96.82;102817.97;5027487;28;20043;-76
2022/01/23 14:21:56;;;;;;;7.93;2.60;;;;;;;8.79;94.65;102792.00;5039529;28;20037;-76
2022/01/23 14:24:36;;;;;;;4.30;1.80;;;;;;;8.52;93.27;102756.53;5038868;28;20090;-76
2022/01/23 14:27:06;;;;;;;3.60;1.65;;;;;;;8.47;93.14;102754.16;5039978;28;20170;-75
2022/01/23 14:29:45;;;;;;;8.10;1.40;;;;;;;8.39;92.94;102757.28;5039620;28;20120;-75
2022/01/23 14:32:22;;;;;;;6.75;2.45;;;;;;;8.34;93.11;102759.41;5032115;28;20040;-77
2022/01/23 14:34:48;;;;;;;8.80;1.35;;;;;;;7.83;93.68;102761.75;5026855;28;20041;-76
2022/01/23 14:37:13;;;;;;;6.30;2.40;;;;;;;7.68;94.65;102789.25;5027049;28;20035;-79
2022/01/23 14:39:39;;;;;;;8.17;1.67;;;;;;;7.60;95.17;102793.25;5025180;28;20037;-81
2022/01/23 14:42:15;;;;;;;8.25;2.20;;;;;;;7.45;96.56;102820.78;5039963;28;20029;-76
2022/01/23 14:44:41;;;;;;;9.95;1.60;;;;;;;7.25;97.39;102821.09;5038445;28;20041;-80
2022/01/23 14:47:08;;;;;;;10.82;2.97;;;;;;;7.21;98.22;102830.19;5041093;28;20493;-77
2022/01/23 14:49:34;;;;;;;7.03;1.40;;;;;;;7.18;98.38;102831.22;5041773;28;20083;-81
2022/01/23 14:52:01;;;;;;;6.05;1.98;;;;;;;7.18;98.97;102857.78;5021438;28;20119;-76
2022/01/23 14:54:31;;;;;;;7.00;1.60;;;;;;;7.14;99.36;102850.91;5025318;28;20041;-80
2022/01/23 14:56:59;;;;;;;11.25;1.98;;;;;;;7.15;99.95;102868.59;5049167;28;20538;-79
2022/01/23 14:59:24;;;;;;;13.05;2.22;;;;;;;7.09;100.00;102882.22;5043265;28;20028;-77
2022/01/23 15:01:49;;;;;;;6.43;1.87;;;;;;;7.03;100.00;102878.13;5029751;28;20033;-77
2022/01/23 15:04:17;;;;;;;5.17;1.97;;;;;;;7.08;100.00;102884.03;5039835;28;20033;-77
2022/01/23 15:06:46;;;;;;;10.90;2.33;;;;;;;6.94;100.00;102886.59;5047139;28;20079;-77